Time;durP1;ratioP1;P1;durP2;ratioP2;P2;SDS_P1;SDS_P2;PMS_P1;PMS_P2;Temp;Humidity;BMP_temperature;BMP_pressure;BME280_temperature;BME280_humidity;BME280_pressure;Samples;Min_cycle;Max_cycle;Signal;HPM_P1;HPM_P2
2023/11/27 00:01:53;;;;;;;6.53;3.42;;;;;;;-0.45;65.79;99585.78;30599000;28;102236;-67
2023/11/27 00:16:54;;;;;;;10.15;4.93;;;;;;;-0.47;65.51;99586.84;30598139;28;97235;-67
2023/11/27 00:31:54;;;;;;;7.97;5.22;;;;;;;-0.53;65.58;99588.13;30598174;28;97196;-67
2023/11/27 00:46:54;;;;;;;9.45;4.32;;;;;;;-0.56;65.41;99581.34;30596312;28;103604;-67
2023/11/27 01:01:55;;;;;;;9.35;4.70;;;;;;;-0.58;65.43;99585.84;30594469;28;97385;-66
2023/11/27 01:16:56;;;;;;;10.85;4.80;;;;;;;-0.66;65.53;99572.50;30593677;28;107904;-67
2023/11/27 01:31:56;;;;;;;9.50;5.75;;;;;;;-0.76;65.18;99572.34;30613073;28;97050;-67
2023/11/27 01:46:58;;;;;;;10.82;5.40;;;;;;;-1.08;65.56;99562.47;30612794;28;97604;-67
2023/11/27 02:01:59;;;;;;;9.90;5.68;;;;;;;-1.37;66.11;99585.44;30611035;28;96675;-66
2023/11/27 02:16:59;;;;;;;9.07;5.22;;;;;;;-1.76;65.52;99575.09;30609833;28;97135;-67
2023/11/27 02:32:03;;;;;;;8.77;4.72;;;;;;;-2.13;66.82;99574.16;30607569;28;108783;-67
2023/11/27 02:47:04;;;;;;;10.47;5.80;;;;;;;-2.46;67.06;99560.69;30606494;28;97366;-66
2023/11/27 03:02:04;;;;;;;9.93;6.10;;;;;;;-2.74;67.51;99533.81;30604669;28;106795;-66
2023/11/27 03:17:04;;;;;;;9.82;5.30;;;;;;;-2.94;68.14;99522.09;30605090;28;96757;-67
2023/11/27 03:32:05;;;;;;;8.95;4.55;;;;;;;-3.10;68.29;99524.03;30603766;28;96775;-67
2023/11/27 03:47:06;;;;;;;7.80;5.07;;;;;;;-3.28;69.02;99513.00;30601654;28;96773;-66
2023/11/27 04:02:08;;;;;;;16.38;8.13;;;;;;;-3.44;69.75;99521.81;30597747;28;96750;-65
2023/11/27 04:17:08;;;;;;;15.63;7.63;;;;;;;-3.66;69.75;99524.94;30596882;28;97154;-67
2023/11/27 04:32:08;;;;;;;11.73;5.75;;;;;;;-3.76;70.02;99503.84;30593571;28;105866;-65
2023/11/27 04:47:09;;;;;;;12.55;5.78;;;;;;;-3.82;70.87;99493.81;30592145;28;97634;-66
2023/11/27 05:02:09;;;;;;;13.75;6.50;;;;;;;-3.87;70.94;99485.44;30617357;28;97023;-65
2023/11/27 05:17:09;;;;;;;13.80;7.60;;;;;;;-3.96;71.27;99486.03;30606605;28;114284;-66
2023/11/27 05:32:10;;;;;;;14.65;8.75;;;;;;;-3.90;71.85;99477.84;30605361;28;97653;-66
2023/11/27 05:47:12;;;;;;;16.63;9.48;;;;;;;-3.96;72.59;99476.47;30605666;28;109455;-66
2023/11/27 06:02:12;;;;;;;17.17;9.80;;;;;;;-3.98;72.28;99482.69;30605054;28;97665;-67
2023/11/27 06:17:12;;;;;;;18.27;9.50;;;;;;;-3.98;72.96;99486.09;30606023;28;97208;-66
2023/11/27 06:32:12;;;;;;;12.73;7.45;;;;;;;-4.00;72.37;99489.75;30606195;28;114463;-66
2023/11/27 06:47:13;;;;;;;13.57;8.27;;;;;;;-3.62;73.43;99489.97;30602333;28;102657;-64
2023/11/27 07:02:13;;;;;;;15.10;8.02;;;;;;;-2.92;73.76;99485.50;30599567;28;96990;-66
2023/11/27 07:17:14;;;;;;;14.18;9.60;;;;;;;-1.62;73.60;99464.41;30599776;28;96705;-66
2023/11/27 07:32:15;;;;;;;18.45;10.95;;;;;;;-0.28;73.34;99479.81;30597772;28;97451;-66
2023/11/27 07:47:16;;;;;;;16.60;9.20;;;;;;;2.03;71.80;99470.63;30595138;28;97450;-66
2023/11/27 08:02:16;;;;;;;17.50;8.73;;;;;;;7.39;65.68;99459.97;30595030;28;114275;-66
2023/11/27 08:17:16;;;;;;;21.02;9.52;;;;;;;12.68;57.69;99455.50;30596802;28;97316;-66
2023/11/27 08:32:17;;;;;;;17.00;9.38;;;;;;;16.15;49.42;99435.38;30589624;28;111135;-66
2023/11/27 08:47:17;;;;;;;18.05;11.38;;;;;;;19.33;44.09;99429.13;30587418;28;109297;-64
2023/11/27 09:02:17;;;;;;;13.82;9.20;;;;;;;21.71;36.87;99430.66;30589261;28;97576;-66
2023/11/27 09:17:18;;;;;;;;;;;;;;;23.37;31.85;99408.22;30586565;28;112913;-66
2023/11/27 09:32:18;;;;;;;12.63;8.63;;;;;;;25.63;26.70;99398.72;30589353;28;97322;-66
2023/11/27 09:47:19;;;;;;;13.07;8.90;;;;;;;26.91;23.64;99395.38;30600154;28;112378;-66
2023/11/27 10:02:21;;;;;;;8.87;6.23;;;;;;;28.08;20.94;99374.34;30606561;28;97462;-67
2023/11/27 10:17:24;;;;;;;7.77;5.90;;;;;;;29.32;18.53;99347.56;30605241;28;96870;-66
2023/11/27 10:32:24;;;;;;;11.13;5.40;;;;;;;30.72;17.00;99334.03;30602572;28;97221;-65
2023/11/27 10:47:26;;;;;;;9.15;4.10;;;;;;;31.49;15.20;99327.00;30600840;28;97409;-66
2023/11/27 11:02:26;;;;;;;5.20;2.40;;;;;;;28.20;15.82;99299.91;30597736;28;97498;-68
2023/11/27 11:17:59;;;;;;;7.38;3.63;;;;;;;25.17;17.47;99276.53;30594125;28;97868;-66
2023/11/27 11:33:02;;;;;;;3.40;1.47;;;;;;;24.99;16.63;99259.03;30588692;28;98560;-64
2023/11/27 11:48:12;;;;;;;6.63;2.90;;;;;;;29.26;13.78;99252.00;30588711;28;96862;-65
2023/11/27 12:03:20;;;;;;;6.23;3.27;;;;;;;16.82;22.39;99241.63;30585720;28;97404;-64
2023/11/27 12:18:21;;;;;;;7.57;2.70;;;;;;;11.43;26.48;99229.63;30591694;28;97451;-64
2023/11/27 12:33:21;;;;;;;5.47;2.80;;;;;;;8.70;29.17;99216.22;30591672;28;97218;-63
2023/11/27 12:48:21;;;;;;;6.07;2.80;;;;;;;6.26;31.74;99217.16;30589058;28;96748;-63
2023/11/27 13:03:22;;;;;;;7.93;2.08;;;;;;;5.08;33.80;99202.25;30570050;28;113067;-63
2023/11/27 13:18:28;;;;;;;6.53;2.92;;;;;;;5.47;34.27;99150.69;30593096;28;96767;-64
2023/11/27 13:33:28;;;;;;;3.47;1.87;;;;;;;6.15;33.63;99146.13;30599089;28;98529;-65
2023/11/27 13:48:31;;;;;;;3.92;1.77;;;;;;;4.78;36.26;99135.81;30553480;28;98068;-65
2023/11/27 14:03:34;;;;;;;6.83;3.30;;;;;;;4.17;37.56;99124.44;30486348;28;97096;-62
2023/11/27 14:33:52;;;;;;;8.70;4.07;;;;;;;2.18;41.69;99087.44;30482102;28;97287;-64
2023/11/27 14:48:53;;;;;;;9.20;4.32;;;;;;;1.61;43.53;99073.47;30481904;28;97431;-63
2023/11/27 15:03:56;;;;;;;13.43;5.90;;;;;;;1.27;44.71;99069.50;30482474;28;109650;-64
2023/11/27 15:18:56;;;;;;;12.73;6.40;;;;;;;0.98;46.37;99046.69;30481066;28;97140;-63
2023/11/27 15:33:57;;;;;;;26.40;8.30;;;;;;;0.67;47.27;99028.44;30478138;28;96659;-63
2023/11/27 15:48:58;;;;;;;16.77;8.55;;;;;;;0.47;48.66;99008.41;30475921;28;97523;-62
2023/11/27 16:04:00;;;;;;;17.33;9.55;;;;;;;0.46;49.15;99009.38;30476502;28;97243;-64
2023/11/27 16:19:01;;;;;;;14.63;7.88;;;;;;;0.56;49.98;99002.38;30475797;28;96817;-63
2023/11/27 16:34:02;;;;;;;19.63;9.07;;;;;;;0.60;50.35;98958.34;30473494;28;96847;-63
2023/11/27 16:49:02;;;;;;;20.70;9.52;;;;;;;0.59;50.94;98926.09;30472457;28;96940;-62
2023/11/27 17:04:03;;;;;;;24.75;10.73;;;;;;;0.51;51.66;98910.22;30491007;28;97502;-62
2023/11/27 17:19:03;;;;;;;18.05;9.80;;;;;;;0.54;52.55;98898.66;30490658;28;96674;-62
2023/11/27 17:34:05;;;;;;;16.27;8.73;;;;;;;0.56;53.17;98879.19;30487118;28;111349;-62
2023/11/27 17:49:06;;;;;;;15.07;8.43;;;;;;;0.54;53.70;98849.66;30487234;28;96769;-64
2023/11/27 18:04:06;;;;;;;18.88;9.90;;;;;;;0.60;54.16;98814.22;30560396;28;97231;-61
2023/11/27 18:19:07;;;;;;;22.77;9.73;;;;;;;0.54;54.46;98796.44;30600929;28;98424;-62
2023/11/27 18:34:07;;;;;;;20.73;10.32;;;;;;;0.41;55.34;98773.97;30593575;28;97161;-61
2023/11/27 18:49:07;;;;;;;20.23;11.60;;;;;;;0.38;56.06;98765.56;30593982;28;97031;-62
2023/11/27 19:04:08;;;;;;;22.40;11.45;;;;;;;0.28;56.48;98737.56;30598678;28;99155;-64
2023/11/27 19:19:09;;;;;;;24.10;12.30;;;;;;;0.26;57.78;98736.91;30584589;28;97184;-62
2023/11/27 19:34:13;;;;;;;22.35;11.27;;;;;;;0.29;58.27;98710.44;30571501;28;97524;-60
2023/11/27 19:49:13;;;;;;;24.65;12.07;;;;;;;0.39;58.35;98710.41;30613818;28;97500;-62
2023/11/27 20:04:14;;;;;;;35.13;14.38;;;;;;;0.51;58.89;98671.75;30606032;28;97439;-62
2023/11/27 20:19:15;;;;;;;26.88;13.00;;;;;;;0.54;59.13;98678.53;30585185;28;97185;-60
2023/11/27 20:34:16;;;;;;;27.55;13.70;;;;;;;0.51;59.45;98637.69;30573982;28;115824;-68
2023/11/27 20:49:16;;;;;;;24.80;13.60;;;;;;;0.49;59.72;98626.53;30580604;28;97652;-62
2023/11/27 21:04:17;;;;;;;25.13;13.45;;;;;;;0.39;60.31;98605.59;30580952;28;98259;-62
2023/11/27 21:19:17;;;;;;;22.70;12.30;;;;;;;0.27;60.68;98593.66;30543041;28;97888;-62
2023/11/27 21:34:17;;;;;;;24.65;13.27;;;;;;;0.26;61.24;98579.75;30560418;28;98689;-63
2023/11/27 21:49:18;;;;;;;30.60;13.90;;;;;;;0.18;61.46;98577.03;30595656;28;97385;-63
2023/11/27 22:04:18;;;;;;;24.27;12.60;;;;;;;0.10;62.10;98538.44;30593175;28;97411;-63
2023/11/27 22:19:18;;;;;;;26.50;14.63;;;;;;;0.05;62.70;98524.16;30607424;28;96737;-62
2023/11/27 22:34:19;;;;;;;23.48;13.13;;;;;;;-0.04;63.24;98513.56;30606862;28;98058;-62
2023/11/27 22:49:20;;;;;;;30.83;15.85;;;;;;;-0.12;63.61;98476.81;30604937;28;108859;-63
2023/11/27 23:04:21;;;;;;;30.17;16.52;;;;;;;-0.20;64.00;98461.00;30605137;28;97283;-61
2023/11/27 23:19:21;;;;;;;32.08;16.80;;;;;;;-0.39;64.51;98433.94;30604541;28;98230;-62
2023/11/27 23:34:21;;;;;;;29.80;16.33;;;;;;;-0.45;65.46;98403.13;30603490;28;107320;-62
2023/11/27 23:49:22;;;;;;;31.65;16.33;;;;;;;-0.45;65.65;98392.66;30601311;28;110994;-62
